Oldenburg, Mississippi
Current Conditions -  °F | °C
As of 2:35 PM on Wednesday 26 Nov 2014 (Local Time) from KHEZ Reporting Station
Clear Clear  
Wind Chill: 20°   Ceiling: Unl
Heat Index: 20°   Visibility: 10mi
Dew Point:   Wind: 18mph
Humidity: 33%   Direction: 240°WSW
Pressure: 30.12"   Gusts: 25mph
Location:  31.4774°N, 91.0619°W
Report Text: KHEZ 262035Z AUTO 24016G22KT 10SM CLR 20/03 A3012 RMK AO1
Loading
Personal Weather Stations






























Interactive Weather Map New forecast layout! Learn more

10-Day Weather Forecast

Advertisements
Track Severe Weather on mobile